Time;durP1;ratioP1;P1;durP2;ratioP2;P2;SDS_P1;SDS_P2;PMS_P1;PMS_P2;Temp;Humidity;BMP_temperature;BMP_pressure;BME280_temperature;BME280_humidity;BME280_pressure;Samples;Min_cycle;Max_cycle;Signal;HPM_P1;HPM_P2
2022/10/31 00:00:17;;;;;;;13.00;7.13;;;9.30;99.90;;;;;;5016236;28;20503;-77
2022/10/31 00:02:43;;;;;;;14.48;7.93;;;9.30;99.90;;;;;;5016466;28;20433;-77
2022/10/31 00:05:08;;;;;;;14.68;7.30;;;9.30;99.90;;;;;;5016066;28;20022;-77
2022/10/31 00:07:34;;;;;;;15.98;7.63;;;9.30;99.90;;;;;;5016228;28;20058;-77
2022/10/31 00:10:00;;;;;;;13.38;7.60;;;9.30;99.90;;;;;;5016298;28;20476;-77
2022/10/31 00:12:26;;;;;;;27.48;8.90;;;9.30;99.90;;;;;;5016000;28;20567;-77
2022/10/31 00:14:52;;;;;;;16.95;7.93;;;9.30;99.90;;;;;;5016655;28;20522;-77
2022/10/31 00:17:18;;;;;;;19.67;7.50;;;9.40;99.90;;;;;;5016077;28;20030;-77
2022/10/31 00:19:43;;;;;;;18.05;8.43;;;9.40;99.90;;;;;;5016102;28;20022;-77
2022/10/31 00:22:09;;;;;;;19.85;8.30;;;9.40;99.90;;;;;;5016015;28;20449;-77
2022/10/31 00:24:34;;;;;;;14.65;7.65;;;9.30;99.90;;;;;;5016093;28;20026;-76
2022/10/31 00:27:00;;;;;;;16.55;8.32;;;9.30;99.90;;;;;;5015956;28;20037;-77
2022/10/31 00:29:25;;;;;;;15.32;7.53;;;9.30;99.90;;;;;;5015855;28;20484;-77
2022/10/31 00:31:52;;;;;;;13.70;7.68;;;9.20;99.90;;;;;;5015556;28;20431;-77
2022/10/31 00:34:17;;;;;;;17.90;7.80;;;9.20;99.90;;;;;;5016109;28;20106;-77
2022/10/31 00:36:43;;;;;;;18.52;8.32;;;9.20;99.90;;;;;;4996081;28;20121;-77
2022/10/31 00:39:08;;;;;;;16.67;8.27;;;9.20;99.90;;;;;;4996171;28;20022;-77
2022/10/31 00:41:34;;;;;;;18.27;7.72;;;9.10;99.90;;;;;;4996029;28;20076;-77
2022/10/31 00:44:00;;;;;;;15.82;8.02;;;9.00;99.90;;;;;;4995887;28;20068;-77
2022/10/31 00:46:26;;;;;;;17.00;7.82;;;9.00;99.90;;;;;;4994677;28;20038;-77
2022/10/31 00:48:51;;;;;;;16.60;7.50;;;9.00;99.90;;;;;;4995665;28;20061;-78
2022/10/31 00:51:17;;;;;;;12.52;7.43;;;9.00;99.90;;;;;;4995801;28;20042;-77
2022/10/31 00:53:43;;;;;;;12.40;6.90;;;8.90;99.90;;;;;;4995730;28;20481;-77
2022/10/31 00:56:08;;;;;;;14.15;7.30;;;8.90;99.90;;;;;;4995966;28;20027;-77
2022/10/31 00:58:34;;;;;;;15.77;7.38;;;8.80;99.90;;;;;;4995689;28;20385;-77
2022/10/31 01:01:00;;;;;;;15.32;7.38;;;8.80;99.90;;;;;;4995472;28;20058;-77
2022/10/31 01:03:33;;;;;;;13.63;7.25;;;8.80;99.90;;;;;;4995599;28;20034;-77
2022/10/31 01:06:15;;;;;;;14.95;6.57;;;8.70;99.90;;;;;;5002254;28;20130;-77
2022/10/31 01:08:41;;;;;;;17.33;7.13;;;8.80;99.90;;;;;;5015255;28;20058;-77
2022/10/31 01:11:16;;;;;;;19.35;7.55;;;8.80;99.90;;;;;;5014740;28;20056;-77
2022/10/31 01:13:43;;;;;;;18.98;6.93;;;8.90;99.90;;;;;;5015344;28;20441;-77
2022/10/31 01:16:12;;;;;;;13.93;6.60;;;8.90;99.90;;;;;;5014750;28;20440;-77
2022/10/31 01:18:38;;;;;;;14.77;7.00;;;9.00;99.90;;;;;;5014829;28;20026;-77
2022/10/31 01:21:05;;;;;;;15.57;7.13;;;9.00;99.90;;;;;;5014815;28;20018;-77
2022/10/31 01:23:30;;;;;;;12.60;6.65;;;9.10;99.90;;;;;;5014732;28;20469;-77
2022/10/31 01:26:08;;;;;;;21.17;7.85;;;9.00;99.90;;;;;;5014775;28;20036;-77
2022/10/31 01:28:39;;;;;;;22.35;9.52;;;9.20;99.90;;;;;;5014808;28;20041;-77
2022/10/31 01:31:07;;;;;;;18.17;8.40;;;9.50;1.00;;;;;;5014716;28;20512;-77
2022/10/31 01:34:25;;;;;;;18.35;8.52;;;9.30;1.00;;;;;;5004154;23;20082;-85
2022/10/31 01:36:51;;;;;;;19.52;9.25;;;9.20;1.00;;;;;;4974448;28;20027;-85
2022/10/31 01:42:38;;;;;;;20.30;9.23;;;9.10;99.90;;;;;;4975317;28;20461;-85
2022/10/31 01:45:05;;;;;;;22.15;9.68;;;9.10;99.90;;;;;;4975578;28;20102;-85
2022/10/31 01:47:41;;;;;;;20.42;9.43;;;9.10;1.00;;;;;;4975293;28;20113;-85
2022/10/31 01:50:15;;;;;;;21.10;10.23;;;9.00;99.90;;;;;;4981877;28;20094;-85
2022/10/31 01:52:45;;;;;;;20.67;9.32;;;8.90;99.90;;;;;;4974172;28;20062;-85
2022/10/31 01:55:13;;;;;;;;;;;9.00;99.90;;;;;;4976009;28;20031;-85
2022/10/31 01:57:41;;;;;;;22.00;10.52;;;8.80;99.90;;;;;;4973963;28;19905;-84
2022/10/31 02:00:09;;;;;;;21.35;10.20;;;8.80;99.90;;;;;;4975320;28;20058;-85
2022/10/31 02:02:35;;;;;;;26.27;10.95;;;8.80;99.90;;;;;;4974997;28;20027;-85
2022/10/31 02:05:06;;;;;;;24.23;10.95;;;8.80;99.90;;;;;;4988549;28;20033;-85
2022/10/31 02:07:41;;;;;;;21.42;10.25;;;8.70;99.90;;;;;;4980594;28;20037;-85
2022/10/31 02:10:07;;;;;;;27.17;10.77;;;8.70;99.90;;;;;;4975256;28;20449;-85
2022/10/31 02:12:35;;;;;;;26.42;11.27;;;8.70;99.90;;;;;;4973688;28;20537;-84
2022/10/31 02:15:01;;;;;;;21.77;11.52;;;8.70;99.90;;;;;;4973653;28;20102;-85
2022/10/31 02:17:29;;;;;;;23.55;10.48;;;8.60;99.90;;;;;;4976786;28;20516;-84
2022/10/31 02:23:55;;;;;;;26.10;10.75;;;8.60;99.90;;;;;;5014247;28;20033;-84
2022/10/31 02:26:39;;;;;;;22.33;10.60;;;8.60;99.90;;;;;;5005211;28;20030;-85
2022/10/31 02:29:10;;;;;;;22.40;10.77;;;8.50;99.90;;;;;;4994317;28;20065;-85
2022/10/31 02:31:44;;;;;;;25.67;11.02;;;8.60;99.90;;;;;;4994328;28;20077;-85
2022/10/31 02:34:28;;;;;;;24.55;11.63;;;8.60;99.90;;;;;;4963632;28;20102;-85
2022/10/31 02:36:57;;;;;;;26.45;11.18;;;8.60;99.90;;;;;;4955812;29;20030;-85
2022/10/31 02:39:53;;;;;;;30.33;12.00;;;8.50;99.90;;;;;;4954448;28;20055;-84
2022/10/31 02:42:45;;;;;;;21.15;10.20;;;8.60;99.90;;;;;;4954085;28;20273;-85
2022/10/31 02:45:37;;;;;;;21.15;10.85;;;8.60;99.90;;;;;;4954879;28;20039;-85
2022/10/31 02:48:10;;;;;;;25.90;11.60;;;8.50;99.90;;;;;;4955609;29;20043;-84
2022/10/31 02:50:41;;;;;;;25.75;11.25;;;8.60;99.90;;;;;;4954278;29;20042;-85
2022/10/31 02:53:07;;;;;;;21.85;11.30;;;8.60;99.90;;;;;;4954290;28;20389;-85
2022/10/31 02:55:33;;;;;;;21.77;10.85;;;8.60;99.90;;;;;;4955300;28;20462;-85
2022/10/31 02:58:09;;;;;;;25.17;10.75;;;8.60;99.90;;;;;;4955310;29;20434;-85
2022/10/31 03:00:56;;;;;;;21.50;10.48;;;8.60;99.90;;;;;;4954132;28;20459;-85
2022/10/31 03:03:35;;;;;;;23.77;11.00;;;8.60;99.90;;;;;;4956166;28;20449;-85
2022/10/31 03:06:10;;;;;;;21.80;10.75;;;8.60;99.90;;;;;;4974559;28;20031;-85
2022/10/31 03:08:48;;;;;;;17.95;10.45;;;8.50;99.90;;;;;;4974279;28;20031;-85
2022/10/31 03:11:14;;;;;;;18.55;10.20;;;8.50;99.90;;;;;;4976981;28;20030;-85
2022/10/31 03:13:45;;;;;;;23.48;10.77;;;8.50;99.90;;;;;;4978120;28;20105;-85
2022/10/31 03:16:28;;;;;;;24.80;10.27;;;8.50;99.90;;;;;;4978200;28;20027;-85
2022/10/31 03:19:10;;;;;;;18.23;9.52;;;8.50;99.90;;;;;;4978103;28;20050;-85
2022/10/31 03:21:44;;;;;;;20.15;9.88;;;8.50;99.90;;;;;;4978129;28;20030;-85
2022/10/31 03:24:11;;;;;;;23.23;10.20;;;8.40;99.90;;;;;;4976859;28;20039;-85
2022/10/31 03:26:40;;;;;;;16.98;9.18;;;8.30;99.90;;;;;;4976938;28;20058;-85
2022/10/31 03:29:10;;;;;;;19.52;9.90;;;8.40;99.90;;;;;;4978155;28;20496;-85
2022/10/31 03:31:51;;;;;;;23.60;10.43;;;8.30;99.90;;;;;;4978352;28;20027;-85
2022/10/31 03:34:19;;;;;;;19.70;10.30;;;8.30;99.90;;;;;;4992696;28;20045;-85
2022/10/31 03:36:46;;;;;;;20.25;10.63;;;8.30;99.90;;;;;;4990066;28;20030;-85
2022/10/31 03:39:14;;;;;;;27.80;11.43;;;8.30;99.90;;;;;;4978301;28;20027;-85
2022/10/31 03:42:04;;;;;;;23.77;10.55;;;8.50;99.90;;;;;;4978048;28;20545;-85
2022/10/31 03:44:33;;;;;;;19.92;11.10;;;8.40;99.90;;;;;;4977987;28;20062;-84
2022/10/31 03:46:59;;;;;;;21.52;11.20;;;8.40;99.90;;;;;;4976377;28;20034;-85
2022/10/31 03:49:27;;;;;;;29.88;11.75;;;8.40;99.90;;;;;;4976934;28;20065;-84
2022/10/31 03:52:09;;;;;;;29.83;12.55;;;8.40;99.90;;;;;;4961617;28;20031;-85
2022/10/31 03:54:44;;;;;;;22.23;12.30;;;8.40;1.00;;;;;;4978859;28;20034;-85
2022/10/31 03:57:17;;;;;;;22.58;12.27;;;8.40;99.90;;;;;;4977860;28;20027;-85
2022/10/31 04:00:01;;;;;;;26.05;12.68;;;8.30;99.90;;;;;;4989761;28;20097;-85
2022/10/31 04:02:32;;;;;;;21.95;12.35;;;8.30;99.90;;;;;;4966739;28;20019;-85
2022/10/31 04:04:59;;;;;;;27.73;13.85;;;8.40;1.00;;;;;;4978111;28;20425;-85
2022/10/31 04:07:29;;;;;;;28.60;13.95;;;8.60;1.00;;;;;;4977681;28;20488;-84
2022/10/31 04:09:56;;;;;;;30.55;14.38;;;8.50;1.00;;;;;;4975842;28;20038;-85
2022/10/31 04:12:25;;;;;;;30.70;13.77;;;8.50;1.00;;;;;;4976959;28;20730;-85
2022/10/31 04:14:52;;;;;;;31.50;14.68;;;8.50;1.00;;;;;;4976880;28;20031;-85
2022/10/31 04:17:22;;;;;;;41.67;14.80;;;8.60;1.00;;;;;;4975564;28;20029;-85
2022/10/31 04:19:47;;;;;;;36.87;16.63;;;8.80;1.00;;;;;;4975476;28;20106;-84
2022/10/31 04:22:13;;;;;;;35.60;15.43;;;8.90;1.00;;;;;;4975560;28;20775;-85
2022/10/31 04:24:40;;;;;;;30.00;14.15;;;8.70;1.00;;;;;;4976768;28;20027;-85
2022/10/31 04:27:06;;;;;;;37.33;15.38;;;8.70;1.00;;;;;;4976673;28;20031;-85
2022/10/31 04:29:31;;;;;;;36.63;15.20;;;8.70;1.00;;;;;;4976862;28;20549;-85
2022/10/31 04:31:57;;;;;;;32.35;15.00;;;8.60;1.00;;;;;;4976306;28;20077;-85
2022/10/31 04:34:23;;;;;;;34.25;14.38;;;8.60;1.00;;;;;;4976624;28;20030;-85
2022/10/31 04:36:48;;;;;;;39.88;14.40;;;8.70;1.00;;;;;;4976698;28;20037;-85
2022/10/31 04:39:14;;;;;;;25.63;13.48;;;8.60;1.00;;;;;;4976835;28;20030;-85
2022/10/31 04:41:39;;;;;;;30.92;14.02;;;8.50;1.00;;;;;;4976536;28;20019;-85
2022/10/31 04:44:05;;;;;;;26.38;13.07;;;8.40;1.00;;;;;;4976402;28;20548;-85
2022/10/31 04:46:30;;;;;;;29.02;15.20;;;8.50;1.00;;;;;;4976311;28;20067;-85
2022/10/31 04:48:56;;;;;;;25.80;13.82;;;8.60;1.00;;;;;;4975057;28;20026;-86
2022/10/31 04:51:22;;;;;;;27.35;13.68;;;8.70;1.00;;;;;;4976213;28;20015;-86
2022/10/31 04:57:31;;;;;;;63.00;17.45;;;8.60;1.00;;;;;;4976465;28;20509;-86
2022/10/31 04:59:57;;;;;;;35.65;14.75;;;8.90;1.00;;;;;;4974970;28;20474;-85
2022/10/31 05:02:23;;;;;;;33.17;14.02;;;8.80;1.00;;;;;;4974758;28;20023;-86
2022/10/31 05:04:48;;;;;;;28.13;13.75;;;8.60;1.00;;;;;;4976122;28;20098;-86
2022/10/31 05:07:14;;;;;;;38.65;15.55;;;8.70;1.00;;;;;;4971407;28;20482;-86
2022/10/31 05:13:23;;;;;;;31.77;14.15;;;8.70;1.00;;;;;;4956983;29;20026;-86
2022/10/31 05:15:49;;;;;;;28.40;13.25;;;8.60;1.00;;;;;;4955402;28;20034;-86
2022/10/31 05:18:15;;;;;;;29.50;13.20;;;8.60;1.00;;;;;;4956786;28;20093;-86
2022/10/31 05:20:40;;;;;;;25.33;13.40;;;8.50;1.00;;;;;;4956683;28;20028;-86
2022/10/31 05:23:06;;;;;;;30.25;13.00;;;8.50;1.00;;;;;;4960219;28;20034;-86
2022/10/31 05:25:32;;;;;;;49.70;14.40;;;8.40;1.00;;;;;;4974512;28;20030;-86
2022/10/31 05:27:57;;;;;;;21.83;12.35;;;8.40;1.00;;;;;;4959588;28;20038;-85
2022/10/31 05:30:26;;;;;;;27.92;13.35;;;8.50;1.00;;;;;;4973375;28;20499;-86
2022/10/31 05:32:52;;;;;;;35.45;14.77;;;8.60;1.00;;;;;;4992988;28;20404;-86
2022/10/31 05:35:24;;;;;;;30.42;13.63;;;8.70;1.00;;;;;;4994989;28;20512;-86
2022/10/31 05:37:49;;;;;;;35.30;15.13;;;8.70;1.00;;;;;;4990739;28;20109;-86
2022/10/31 05:40:17;;;;;;;58.08;15.07;;;8.60;1.00;;;;;;4963489;28;20150;-86
2022/10/31 05:42:43;;;;;;;30.52;14.45;;;8.60;1.00;;;;;;4975229;28;20027;-86
2022/10/31 05:45:11;;;;;;;33.58;14.02;;;8.60;1.00;;;;;;4955146;28;20022;-86
2022/10/31 05:47:37;;;;;;;27.23;14.18;;;8.80;1.00;;;;;;4958012;28;20482;-86
2022/10/31 05:50:03;;;;;;;25.50;13.45;;;8.50;1.00;;;;;;4958589;28;20058;-86
2022/10/31 05:52:28;;;;;;;24.80;13.95;;;8.50;1.00;;;;;;4956465;28;20371;-86
2022/10/31 05:54:54;;;;;;;33.05;14.10;;;8.60;1.00;;;;;;4965654;28;20015;-86
2022/10/31 05:57:20;;;;;;;31.52;14.43;;;8.60;1.00;;;;;;4969451;28;20060;-86
2022/10/31 05:59:45;;;;;;;28.25;13.48;;;8.60;1.00;;;;;;4986961;28;20030;-86
2022/10/31 06:02:11;;;;;;;31.63;14.10;;;8.60;1.00;;;;;;4978290;28;20019;-86
2022/10/31 06:04:36;;;;;;;34.88;15.07;;;8.70;1.00;;;;;;4978713;28;20085;-86
2022/10/31 06:07:02;;;;;;;29.95;14.35;;;8.70;1.00;;;;;;4982368;28;20037;-86
2022/10/31 06:09:27;;;;;;;31.67;14.20;;;8.80;1.00;;;;;;4975577;28;20034;-86
2022/10/31 06:11:53;;;;;;;29.65;14.00;;;8.90;1.00;;;;;;4973161;28;20026;-86
2022/10/31 06:14:18;;;;;;;26.88;14.00;;;8.80;1.00;;;;;;4983405;28;20114;-86
2022/10/31 06:16:44;;;;;;;23.98;13.77;;;8.60;1.00;;;;;;4982882;28;20027;-86
2022/10/31 06:19:09;;;;;;;23.15;13.52;;;8.50;1.00;;;;;;4966526;28;20020;-86
2022/10/31 06:21:35;;;;;;;25.33;13.25;;;8.40;1.00;;;;;;4971549;28;20020;-86
2022/10/31 06:24:00;;;;;;;25.48;13.57;;;8.40;1.00;;;;;;4974809;28;20106;-85
2022/10/31 06:26:26;;;;;;;24.27;13.18;;;8.50;1.00;;;;;;4978986;28;20469;-86
2022/10/31 06:28:52;;;;;;;22.88;12.85;;;8.50;1.00;;;;;;4982015;28;20081;-86
2022/10/31 06:31:17;;;;;;;20.60;12.95;;;8.40;1.00;;;;;;4981687;28;20064;-86
2022/10/31 06:33:43;;;;;;;23.77;13.15;;;8.40;1.00;;;;;;4972712;28;20049;-86
2022/10/31 06:36:09;;;;;;;21.13;12.15;;;8.30;1.00;;;;;;4963723;28;20927;-86
2022/10/31 06:38:35;;;;;;;23.05;13.43;;;8.40;1.00;;;;;;4972575;28;20034;-86
2022/10/31 06:41:05;;;;;;;18.88;12.52;;;8.40;1.00;;;;;;4984967;28;20023;-86
2022/10/31 06:43:31;;;;;;;21.23;12.93;;;8.40;1.00;;;;;;4987345;28;20041;-86
2022/10/31 06:45:57;;;;;;;26.73;12.98;;;8.40;1.00;;;;;;4981147;28;20027;-86
2022/10/31 06:48:23;;;;;;;27.40;14.27;;;8.50;1.00;;;;;;4977497;28;20038;-86
2022/10/31 06:50:49;;;;;;;25.73;14.45;;;8.50;1.00;;;;;;4990437;28;20069;-86
2022/10/31 06:53:14;;;;;;;24.73;13.63;;;8.70;1.00;;;;;;4985910;28;20053;-86
2022/10/31 06:55:41;;;;;;;26.58;14.80;;;8.70;1.00;;;;;;4990370;28;20093;-86
2022/10/31 06:58:09;;;;;;;23.73;14.00;;;8.80;1.00;;;;;;4975954;28;20058;-86
2022/10/31 07:00:34;;;;;;;31.90;15.45;;;8.80;1.00;;;;;;4986765;28;20031;-86
2022/10/31 07:03:06;;;;;;;23.92;15.02;;;8.90;1.00;;;;;;4980512;28;20019;-86
2022/10/31 07:05:32;;;;;;;26.90;15.48;;;8.90;99.90;;;;;;4971917;28;20038;-88
2022/10/31 07:08:03;;;;;;;25.02;14.70;;;9.00;99.90;;;;;;4982470;28;20023;-85
2022/10/31 07:10:31;;;;;;;26.15;15.38;;;9.00;99.90;;;;;;4975736;28;20501;-86
2022/10/31 07:12:59;;;;;;;30.23;15.88;;;9.20;99.90;;;;;;4970910;28;20062;-86
2022/10/31 07:15:25;;;;;;;29.05;15.27;;;9.40;99.90;;;;;;4976840;28;20019;-85
2022/10/31 07:17:51;;;;;;;27.05;15.20;;;9.50;99.90;;;;;;4976431;28;20031;-85
2022/10/31 07:20:17;;;;;;;28.52;15.80;;;9.70;99.90;;;;;;4991373;28;20056;-85
2022/10/31 07:22:43;;;;;;;33.78;16.27;;;9.90;99.90;;;;;;4972780;28;20046;-85
2022/10/31 07:25:10;;;;;;;27.70;15.95;;;9.90;99.90;;;;;;4983664;28;20378;-85
2022/10/31 07:27:39;;;;;;;26.02;15.40;;;10.00;99.90;;;;;;4990379;28;20359;-85
2022/10/31 07:30:06;;;;;;;30.73;17.10;;;10.30;99.90;;;;;;4964135;28;20023;-85
2022/10/31 07:32:47;;;;;;;29.25;16.33;;;11.20;99.90;;;;;;4988042;28;20496;-85
2022/10/31 07:35:13;;;;;;;;;;;12.40;99.90;;;;;;4977476;28;20023;-85
2022/10/31 07:37:39;;;;;;;30.08;17.38;;;13.60;99.90;;;;;;4977127;28;19937;-85
2022/10/31 07:40:07;;;;;;;24.63;16.75;;;14.60;99.90;;;;;;4977930;28;20521;-85
2022/10/31 07:42:40;;;;;;;22.92;15.85;;;15.00;99.90;;;;;;4981747;28;20050;-84
2022/10/31 07:45:09;;;;;;;23.10;15.30;;;15.20;99.90;;;;;;4977681;28;20081;-85
2022/10/31 07:47:45;;;;;;;22.27;14.60;;;16.50;89.30;;;;;;4981214;28;20483;-85
2022/10/31 07:50:23;;;;;;;21.40;14.50;;;17.60;1.00;;;;;;4984238;28;20031;-85
2022/10/31 07:52:57;;;;;;;21.90;13.93;;;17.20;1.00;;;;;;4975647;28;20023;-85
2022/10/31 07:55:23;;;;;;;16.98;13.23;;;17.80;1.00;;;;;;4975650;28;20482;-85
2022/10/31 07:57:56;;;;;;;18.17;12.57;;;19.20;1.00;;;;;;4981142;28;20084;-85
2022/10/31 08:00:22;;;;;;;21.92;13.73;;;20.70;1.00;;;;;;4983185;28;20058;-85
2022/10/31 08:02:47;;;;;;;16.27;11.85;;;21.60;1.00;;;;;;4978600;28;20476;-85
2022/10/31 08:05:13;;;;;;;16.40;12.30;;;22.30;1.00;;;;;;4984045;28;20082;-85
2022/10/31 08:07:38;;;;;;;14.98;11.23;;;22.10;1.00;;;;;;4978820;28;20027;-85
2022/10/31 08:10:05;;;;;;;18.35;11.98;;;21.80;1.00;;;;;;4983959;28;20086;-84
2022/10/31 08:12:30;;;;;;;14.73;10.65;;;22.60;1.00;;;;;;4985602;28;20058;-84
2022/10/31 08:14:56;;;;;;;16.08;11.23;;;23.20;1.00;;;;;;4969080;28;20490;-85
2022/10/31 08:17:22;;;;;;;17.60;11.30;;;24.40;99.90;;;;;;4956749;28;20386;-84
2022/10/31 08:19:47;;;;;;;14.90;11.50;;;26.20;99.90;;;;;;4957540;28;20027;-85
2022/10/31 08:22:13;;;;;;;15.98;11.15;;;26.60;99.90;;;;;;4958041;28;20506;-84
2022/10/31 08:24:38;;;;;;;13.25;10.63;;;26.10;99.90;;;;;;4958211;28;20058;-85
2022/10/31 08:27:04;;;;;;;16.55;11.40;;;26.90;99.90;;;;;;4963031;28;20031;-84
2022/10/31 08:29:29;;;;;;;14.32;10.80;;;27.80;99.90;;;;;;4960105;28;20423;-85
2022/10/31 08:31:57;;;;;;;16.75;11.65;;;28.80;99.90;;;;;;4960324;28;20038;-85
2022/10/31 08:34:23;;;;;;;15.60;10.77;;;30.30;99.90;;;;;;4962757;28;20043;-85
2022/10/31 08:36:49;;;;;;;14.40;10.90;;;29.60;99.90;;;;;;4956519;28;20371;-84
2022/10/31 08:39:14;;;;;;;15.30;11.13;;;29.90;99.90;;;;;;4960032;28;20062;-85
2022/10/31 08:41:40;;;;;;;16.00;10.75;;;31.00;99.90;;;;;;4959242;28;20027;-85
2022/10/31 08:44:05;;;;;;;14.93;11.27;;;30.80;99.90;;;;;;4960186;28;20056;-84
2022/10/31 08:46:31;;;;;;;15.50;11.23;;;27.20;99.90;;;;;;4959442;28;20027;-84
2022/10/31 08:48:57;;;;;;;15.05;10.25;;;23.50;99.90;;;;;;4955361;28;20023;-84
2022/10/31 08:51:22;;;;;;;12.98;10.68;;;21.60;99.90;;;;;;4955425;28;20098;-84
2022/10/31 08:53:48;;;;;;;13.30;10.43;;;20.20;99.90;;;;;;4970508;28;20070;-84
2022/10/31 08:56:13;;;;;;;14.13;11.18;;;18.90;99.90;;;;;;4959070;28;20099;-84
2022/10/31 08:58:39;;;;;;;12.73;9.70;;;18.10;99.90;;;;;;4958421;28;20024;-84
2022/10/31 09:01:05;;;;;;;15.48;11.43;;;17.90;99.90;;;;;;4954947;28;20019;-84
2022/10/31 09:03:31;;;;;;;13.32;10.65;;;17.80;99.90;;;;;;4957065;28;20023;-84
2022/10/31 09:06:02;;;;;;;14.45;10.10;;;17.70;99.90;;;;;;4962683;28;20027;-84
2022/10/31 09:08:32;;;;;;;14.68;11.45;;;17.30;99.90;;;;;;4962039;28;20105;-84
2022/10/31 09:10:58;;;;;;;15.40;10.50;;;17.00;99.90;;;;;;4958966;28;20047;-84
2022/10/31 09:13:24;;;;;;;14.65;11.93;;;16.90;99.90;;;;;;4967261;28;20441;-84
2022/10/31 09:15:50;;;;;;;17.42;11.77;;;16.80;99.90;;;;;;4957805;28;20023;-84
2022/10/31 09:18:19;;;;;;;19.83;11.57;;;16.50;99.90;;;;;;4958012;28;20081;-84
2022/10/31 09:20:46;;;;;;;14.38;11.00;;;16.30;1.00;;;;;;4965039;28;20118;-84
2022/10/31 09:23:20;;;;;;;14.93;10.93;;;16.20;1.00;;;;;;4974640;28;20015;-84
2022/10/31 09:25:47;;;;;;;15.10;10.98;;;16.00;1.00;;;;;;4974742;28;20498;-84
2022/10/31 09:28:15;;;;;;;14.82;10.73;;;15.90;1.00;;;;;;4990941;28;20062;-85
2022/10/31 09:30:41;;;;;;;14.43;10.32;;;15.70;1.00;;;;;;4980947;28;20035;-85
2022/10/31 09:33:11;;;;;;;15.80;10.70;;;15.80;1.00;;;;;;4991204;28;20074;-85
2022/10/31 09:35:37;;;;;;;14.43;10.38;;;15.80;1.00;;;;;;4981816;28;20054;-85
2022/10/31 09:38:18;;;;;;;16.63;10.75;;;15.90;1.00;;;;;;4986597;28;20453;-85
2022/10/31 09:41:06;;;;;;;14.82;10.80;;;15.80;1.00;;;;;;4974574;28;20019;-85
2022/10/31 09:43:34;;;;;;;15.32;10.10;;;15.80;1.00;;;;;;4984508;28;20388;-85
2022/10/31 09:46:08;;;;;;;14.05;10.23;;;15.60;1.00;;;;;;4979084;28;20109;-85
2022/10/31 09:49:02;;;;;;;18.25;10.63;;;15.70;1.00;;;;;;4993599;28;20034;-85
2022/10/31 09:51:33;;;;;;;17.40;10.05;;;15.60;1.00;;;;;;4972399;28;20030;-84
2022/10/31 09:54:16;;;;;;;13.88;10.05;;;15.50;1.00;;;;;;4977781;28;20070;-85
2022/10/31 09:56:43;;;;;;;16.90;11.07;;;15.40;1.00;;;;;;4985473;28;20031;-84
2022/10/31 09:59:28;;;;;;;18.35;11.30;;;15.40;1.00;;;;;;4980366;28;20061;-84
2022/10/31 10:01:57;;;;;;;17.70;11.38;;;15.40;1.00;;;;;;4972933;28;20027;-85
2022/10/31 10:04:34;;;;;;;14.75;11.07;;;15.50;1.00;;;;;;4956478;28;20027;-85
2022/10/31 10:07:08;;;;;;;18.02;12.40;;;15.70;1.00;;;;;;4955842;28;20094;-84
2022/10/31 10:09:33;;;;;;;16.42;12.05;;;15.70;1.00;;;;;;4966478;28;20481;-84
2022/10/31 10:12:34;;;;;;;20.30;12.88;;;15.80;1.00;;;;;;4974911;28;20092;-84
2022/10/31 10:15:27;;;;;;;21.92;12.70;;;16.00;1.00;;;;;;4951847;28;20031;-84
2022/10/31 10:18:12;;;;;;;19.67;13.20;;;16.30;1.00;;;;;;4985081;28;20026;-84
2022/10/31 10:20:54;;;;;;;19.90;13.07;;;16.60;1.00;;;;;;4969717;28;20023;-84
2022/10/31 10:23:32;;;;;;;22.63;14.43;;;16.80;1.00;;;;;;4990479;28;20386;-84
2022/10/31 10:26:12;;;;;;;24.27;13.88;;;16.90;1.00;;;;;;4991773;28;20026;-84
2022/10/31 10:28:39;;;;;;;;;;;16.60;1.00;;;;;;4985343;28;20031;-85
2022/10/31 10:31:12;;;;;;;22.77;14.13;;;16.50;1.00;;;;;;4973682;28;20420;-85
2022/10/31 10:34:02;;;;;;;21.23;14.05;;;16.70;1.00;;;;;;4973552;28;20075;-85
2022/10/31 10:36:36;;;;;;;21.95;14.13;;;16.70;1.00;;;;;;4986281;28;20437;-85
2022/10/31 10:39:14;;;;;;;19.15;12.85;;;16.70;1.00;;;;;;4973762;28;20031;-84
2022/10/31 10:41:44;;;;;;;23.23;13.40;;;16.70;1.00;;;;;;4973630;28;20027;-84
2022/10/31 10:44:10;;;;;;;22.95;14.52;;;16.60;1.00;;;;;;4988962;28;20027;-84
2022/10/31 10:49:50;;;;;;;21.83;13.30;;;17.20;1.00;;;;;;4962453;28;20093;-84
2022/10/31 10:52:53;;;;;;;21.73;13.27;;;17.00;1.00;;;;;;4973738;28;20393;-85
2022/10/31 10:55:37;;;;;;;22.40;13.32;;;17.00;1.00;;;;;;4973662;28;20081;-85
2022/10/31 10:58:10;;;;;;;25.95;13.80;;;16.90;1.00;;;;;;4983832;28;20541;-84
2022/10/31 11:00:41;;;;;;;21.27;12.60;;;16.80;1.00;;;;;;4975141;28;20061;-85
2022/10/31 11:03:07;;;;;;;23.70;12.88;;;16.60;1.00;;;;;;4983379;28;20026;-85
2022/10/31 11:05:34;;;;;;;22.80;13.05;;;16.60;1.00;;;;;;4989734;28;20484;-84
2022/10/31 11:07:59;;;;;;;22.88;13.20;;;16.80;1.00;;;;;;4982413;28;20022;-84
2022/10/31 11:10:25;;;;;;;22.80;14.27;;;17.00;1.00;;;;;;4979877;28;20078;-84
2022/10/31 11:13:06;;;;;;;21.65;13.05;;;17.00;1.00;;;;;;4966303;28;20019;-84
2022/10/31 11:15:37;;;;;;;20.63;13.55;;;17.00;1.00;;;;;;4968668;28;20034;-84
2022/10/31 11:18:04;;;;;;;21.70;13.05;;;17.00;1.00;;;;;;4987114;28;20545;-84
2022/10/31 11:20:35;;;;;;;16.67;10.93;;;17.10;1.00;;;;;;4966134;28;20027;-84
2022/10/31 11:23:19;;;;;;;17.73;11.15;;;17.00;1.00;;;;;;4958179;28;20024;-85
2022/10/31 11:25:57;;;;;;;15.18;10.20;;;17.40;1.00;;;;;;4960982;28;20015;-84
2022/10/31 11:28:24;;;;;;;17.25;10.52;;;17.60;1.00;;;;;;4959209;28;20041;-85
2022/10/31 11:30:52;;;;;;;15.65;10.82;;;17.90;1.00;;;;;;4969211;28;20023;-85
2022/10/31 11:33:24;;;;;;;19.52;9.48;;;17.90;1.00;;;;;;4961328;28;20457;-85
2022/10/31 11:35:50;;;;;;;12.38;8.23;;;17.80;1.00;;;;;;4959667;28;20397;-85
2022/10/31 11:38:19;;;;;;;13.95;9.68;;;18.20;1.00;;;;;;4960465;28;20038;-85
2022/10/31 11:41:09;;;;;;;15.88;9.00;;;18.40;1.00;;;;;;4963014;28;20023;-85
2022/10/31 11:43:35;;;;;;;14.95;9.05;;;18.20;1.00;;;;;;4957190;28;20023;-85
2022/10/31 11:46:10;;;;;;;14.13;8.15;;;17.90;1.00;;;;;;4956994;28;20505;-85
2022/10/31 11:48:36;;;;;;;11.93;8.25;;;17.70;1.00;;;;;;4963296;28;20027;-85
2022/10/31 11:51:04;;;;;;;12.55;8.55;;;17.60;1.00;;;;;;4969046;28;20023;-85
2022/10/31 11:53:34;;;;;;;13.50;8.93;;;17.50;1.00;;;;;;4974647;28;20110;-85
2022/10/31 11:56:12;;;;;;;13.98;9.18;;;17.50;1.00;;;;;;4957503;28;20031;-85
2022/10/31 11:58:37;;;;;;;13.85;8.65;;;17.50;1.00;;;;;;4962543;28;20098;-85
2022/10/31 12:01:03;;;;;;;15.65;9.57;;;17.30;1.00;;;;;;4963192;28;20452;-85
2022/10/31 12:04:06;;;;;;;16.67;10.73;;;16.80;1.00;;;;;;4964907;28;20577;-85
2022/10/31 12:06:35;;;;;;;15.82;10.30;;;16.80;1.00;;;;;;4962280;28;20035;-85
2022/10/31 12:09:00;;;;;;;18.05;10.05;;;16.80;1.00;;;;;;4958973;28;20031;-85
2022/10/31 12:11:36;;;;;;;12.50;9.05;;;16.60;1.00;;;;;;4957455;28;20025;-85
2022/10/31 12:14:23;;;;;;;15.00;10.10;;;16.70;1.00;;;;;;4965614;28;20026;-84
2022/10/31 12:17:24;;;;;;;15.73;10.95;;;16.50;1.00;;;;;;4963716;28;20490;-84
2022/10/31 12:20:20;;;;;;;15.13;10.65;;;16.20;1.00;;;;;;4977568;28;20114;-84
2022/10/31 12:23:02;;;;;;;17.60;12.52;;;16.00;1.00;;;;;;4957729;29;20023;-85
2022/10/31 12:25:44;;;;;;;16.83;11.95;;;15.90;1.00;;;;;;4958002;28;20019;-84
2022/10/31 12:28:30;;;;;;;17.95;12.52;;;15.90;1.00;;;;;;4956333;28;20413;-85
2022/10/31 12:31:28;;;;;;;18.35;13.20;;;15.80;1.00;;;;;;4958041;28;20082;-85
2022/10/31 12:34:47;;;;;;;18.90;12.88;;;15.70;1.00;;;;;;4957421;28;20043;-85
2022/10/31 12:37:20;;;;;;;21.05;14.00;;;15.80;1.00;;;;;;4969636;28;20031;-84
2022/10/31 12:40:06;;;;;;;22.23;14.32;;;15.70;1.00;;;;;;4976662;28;20425;-85
2022/10/31 12:43:09;;;;;;;26.55;14.82;;;15.80;1.00;;;;;;4976766;28;20023;-85
2022/10/31 12:45:57;;;;;;;24.27;14.52;;;16.00;1.00;;;;;;4976751;28;20022;-85
2022/10/31 12:48:35;;;;;;;22.85;14.30;;;16.00;1.00;;;;;;4988033;28;20030;-85
2022/10/31 12:51:06;;;;;;;23.02;14.90;;;16.10;1.00;;;;;;4996046;28;20030;-85
2022/10/31 12:54:09;;;;;;;21.58;13.70;;;16.10;1.00;;;;;;4984894;28;20065;-84
2022/10/31 12:57:07;;;;;;;22.65;13.50;;;16.30;1.00;;;;;;4955898;29;20041;-85
2022/10/31 12:59:43;;;;;;;18.83;12.05;;;16.60;1.00;;;;;;4955890;28;20106;-85
2022/10/31 13:02:33;;;;;;;20.45;11.85;;;16.60;1.00;;;;;;4957435;28;20027;-85
2022/10/31 13:05:21;;;;;;;16.42;9.10;;;16.90;1.00;;;;;;4955750;28;20034;-85
2022/10/31 13:08:09;;;;;;;15.45;8.60;;;17.00;1.00;;;;;;4957230;28;20035;-85
2022/10/31 13:11:07;;;;;;;13.13;8.60;;;17.10;1.00;;;;;;4956721;28;20035;-85
2022/10/31 13:13:42;;;;;;;16.52;8.75;;;17.20;1.00;;;;;;4961268;28;20038;-85
2022/10/31 13:16:22;;;;;;;12.40;7.13;;;17.20;1.00;;;;;;4975975;28;20027;-85
2022/10/31 13:18:54;;;;;;;13.93;7.18;;;17.20;99.90;;;;;;4956724;28;20027;-84